Finch, Canada
Current Conditions -  °F | °C
As of 11:53 AM on Sunday 23 Nov 2014 (Local Time) from KMSS Reporting Station
Haze Haze  
Wind Chill: 42°   Ceiling: 1500
Heat Index: 46°   Visibility: 5mi
Dew Point: 45°   Wind: 7mph
Humidity: 96%   Direction: 220°SW
Pressure: 30.03"   Gusts: NA
Location:  45.13°N, 75.08°W
Report Text: KMSS 231653Z AUTO 22006KT 5SM BR OVC015 08/07 A3003 RMK AO2 SLP171 T00780072 $
Loading
Personal Weather Stations






























Interactive Weather Map New forecast layout! Learn more

10-Day Weather Forecast

Advertisements
Track Severe Weather on mobile